KFOD

Fort Dodge Regional Airport

Fort Dodge, Iowa, USA
KFOD 151120Z 1512/1612 VRB03KT P6SM -SHRA SCT030 OVC100 FM151600 03005KT P6SM VCSH BKN080 FM152300 04006KT P6SM BKN070 FM160600 VRB03KT P6SM BKN110 FM161000 VRB03KT 3SM BR BKN060
Issued Valid From Valid To
Aug-15 @ 11:20 UTC
(an hour ago)
Aug-15 @ 12:00 UTC
(42 minutes ago)
Aug-16 @ 12:00 UTC
(in 23 hours)
Aug-15 @ 12:00 to Aug-15 @ 16:00
KFOD 151120Z 1512/1612 VRB03KT P6SM -SHRA SCT030 OVC100
Wind Visibility Clouds Conditions
Variable at 3 knots Greater than 6 miles
  • Scattered at 3,000' AGL
  • Overcast at 10,000' AGL
  • Light Rain
From Aug-15 @ 16:00 to Aug-15 @ 23:00
FM151600 03005KT P6SM VCSH BKN080
Wind Visibility Clouds
30° at 5 knots Greater than 6 miles
  • Broken at 8,000' AGL
From Aug-15 @ 23:00 to Aug-16 @ 06:00
FM152300 04006KT P6SM BKN070
Wind Visibility Clouds
40° at 6 knots Greater than 6 miles
  • Broken at 7,000' AGL
From Aug-16 @ 06:00 to Aug-16 @ 10:00
FM160600 VRB03KT P6SM BKN110
Wind Visibility Clouds
Variable at 3 knots Greater than 6 miles
  • Broken at 11,000' AGL
From Aug-16 @ 10:00 to Aug-16 @ 12:00
FM161000 VRB03KT 3SM BR BKN060
Wind Visibility Clouds Conditions
Variable at 3 knots 3 miles
  • Broken at 6,000' AGL
  • Mist
KFOD 151120Z 1512/1612 VRB03KT P6SM -SHRA SCT030 OVC100 FM151600 03005KT P6SM VCSH BKN080 FM152300 04006KT P6SM BKN070 FM160600 VRB03KT P6SM BKN110 FM161000 VRB03KT 3SM BR BKN060
Issued Aug-15 @ 11:20 UTC
(an hour ago)
Valid From Aug-15 @ 12:00 UTC
(42 minutes ago)
Valid To Aug-16 @ 12:00 UTC
(in 23 hours)
Aug-15 @ 12:00 - Aug-15 @ 16:00
Wind Visibility
Variable at 3 knots Greater than 6 miles
Clouds
  • Scattered at 3,000' AGL
  • Overcast at 10,000' AGL
Conditions
  • Light Rain
From Aug-15 @ 16:00 - Aug-15 @ 23:00
Wind Visibility
30° at 5 knots Greater than 6 miles
Clouds
  • Broken at 8,000' AGL
From Aug-15 @ 23:00 - Aug-16 @ 06:00
Wind Visibility
40° at 6 knots Greater than 6 miles
Clouds
  • Broken at 7,000' AGL
From Aug-16 @ 06:00 - Aug-16 @ 10:00
Wind Visibility
Variable at 3 knots Greater than 6 miles
Clouds
  • Broken at 11,000' AGL
From Aug-16 @ 10:00 - Aug-16 @ 12:00
Wind Visibility
Variable at 3 knots 3 miles
Clouds
  • Broken at 6,000' AGL
Conditions
  • Mist